Portada
METAR-TAF:

METAR-TAF

Aeropuertos :

Quincy Regional Airport (Baldwin Field)

Quincy, Illinois, Estados Unidos

latitud: 39-56-33N, longitud: 091-11-40W, altitud: 234 m

Observación

El informe se hizo hace 50 minutos, a las 14:54 UTC
Viento 8 kt del este-sureste
Temperatura 6°C
Humedad 75%
Presión 1019 hPa
Visibilidad: 16.1 km
Cielo despejado

METAR: KUIN 011454Z AUTO 12008KT 10SM CLR 06/02 A3009 RMK AO2 SLP190 T00610022 53006

Hora: 10:44 (15:44 UTC)

Pronóstico

El informe se hizo hace 4 horas y 24 minutos, a las 11:20 UTC
Pronóstico válido del 01 a las 12 UTC al 02 a las 12 UTC
Viento 6 kt del este-sureste
Visibilidad: 10 km
Nubes dispersas a una altura de 7000 ft
A partir de las 02 a las 0300 UTC
Viento 8 kt del sureste
Visibilidad: 10 km
Cielo nuboso a una altura de 25000 ft

TAF: KUIN 011120Z 0112/0212 12006KT P6SM SCT070 FM020300 13008KT P6SM BKN250

Observaciones y pronósticos meteorológicos de más de 4000 aeropuertos (mensajes METAR y TAF).

Los puntos amarillos y rojos representan las estaciones disponibles.

Ponga el ratón en el punto deseado para ver el nombre de la estación.

Haga clic para ver las observaciones y los pronósticos meteorológicos.

Para cambiar el mapa : haga clic en los botones verdes con una cruz de color negro para hacer un zoom, en el botón verde con un guión para alejar o en las flechas verdes para mapas adyacentes.


METAR-TAF: